Time;durP1;ratioP1;P1;durP2;ratioP2;P2;SDS_P1;SDS_P2;PMS_P1;PMS_P2;Temp;Humidity;BMP_temperature;BMP_pressure;BME280_temperature;BME280_humidity;BME280_pressure;Samples;Min_cycle;Max_cycle;Signal;HPM_P1;HPM_P2
2022/02/17 00:02:04;;;;;;;5.97;1.48;;;;;;;11.99;87.18;98960.84;5032779;28;20571;-64
2022/02/17 00:04:35;;;;;;;7.30;1.47;;;;;;;11.98;88.27;98953.91;5001220;28;20409;-66
2022/02/17 00:07:13;;;;;;;4.05;1.40;;;;;;;11.87;88.23;98950.00;5075042;27;20743;-65
2022/02/17 00:09:52;;;;;;;7.07;1.50;;;;;;;11.92;87.40;98942.25;5092031;27;20389;-64
2022/02/17 00:12:30;;;;;;;7.70;1.60;;;;;;;11.94;87.43;98924.28;5092894;27;20778;-64
2022/02/17 00:15:00;;;;;;;7.97;1.30;;;;;;;12.02;86.17;98953.25;5072799;28;20040;-65
2022/02/17 00:17:38;;;;;;;6.20;2.28;;;;;;;12.01;86.43;98918.94;5070451;27;20352;-65
2022/02/17 00:20:16;;;;;;;7.90;2.15;;;;;;;12.00;87.57;98923.44;5075708;27;20353;-65
2022/02/17 00:22:46;;;;;;;7.50;1.52;;;;;;;11.93;88.36;98930.59;5070402;28;20044;-64
2022/02/17 00:25:17;;;;;;;8.05;2.13;;;;;;;11.90;88.38;98912.44;5069841;28;20051;-65
2022/02/17 00:27:55;;;;;;;7.40;1.85;;;;;;;11.83;88.50;98904.44;5130651;27;20390;-65
2022/02/17 00:30:24;;;;;;;10.30;1.42;;;;;;;11.86;88.28;98898.72;5130709;28;20406;-65
2022/02/17 00:33:03;;;;;;;3.78;1.23;;;;;;;11.81;87.84;98900.34;5090277;27;20746;-65
2022/02/17 00:35:40;;;;;;;11.00;1.83;;;;;;;11.88;87.33;98898.50;5070121;27;20361;-64
2022/02/17 00:38:09;;;;;;;5.80;1.50;;;;;;;11.90;86.52;98896.50;5070439;28;20047;-65
2022/02/17 00:40:47;;;;;;;4.65;1.35;;;;;;;11.91;87.04;98908.72;5096210;27;20836;-65
2022/02/17 00:43:16;;;;;;;6.30;1.63;;;;;;;11.89;88.19;98900.13;5095607;28;20044;-65
2022/02/17 00:45:54;;;;;;;7.10;1.52;;;;;;;11.89;87.78;98910.75;5074363;27;20410;-65
2022/02/17 00:48:32;;;;;;;6.80;1.60;;;;;;;11.92;86.81;98906.91;5090606;27;20409;-65
2022/02/17 00:51:11;;;;;;;5.93;1.23;;;;;;;11.93;86.11;98914.66;5090430;27;20352;-65
2022/02/17 00:53:41;;;;;;;5.32;1.50;;;;;;;11.98;85.26;98903.41;5087661;28;20044;-65
2022/02/17 00:56:18;;;;;;;6.90;1.58;;;;;;;11.95;85.14;98915.28;5108856;27;20839;-65
2022/02/17 00:58:52;;;;;;;5.22;1.35;;;;;;;12.02;84.18;98947.16;5105745;28;20044;-65
2022/02/17 01:01:34;;;;;;;7.60;1.67;;;;;;;11.88;86.48;98922.41;5090482;27;20348;-65
2022/02/17 01:04:01;;;;;;;9.55;1.80;;;;;;;11.69;88.63;98924.06;5090491;28;20036;-65
2022/02/17 01:06:28;;;;;;;7.93;1.95;;;;;;;11.49;89.69;98927.53;5088992;28;20047;-65
2022/02/17 01:08:55;;;;;;;10.75;2.15;;;;;;;11.39;88.86;98923.66;5089365;28;20040;-65
2022/02/17 01:11:24;;;;;;;12.55;1.90;;;;;;;11.31;89.78;98906.91;5090514;28;20045;-65
2022/02/17 01:13:51;;;;;;;4.10;1.60;;;;;;;11.29;87.52;98906.28;5089270;28;20504;-66
2022/02/17 01:16:17;;;;;;;10.88;1.73;;;;;;;11.18;88.61;98912.19;5089895;28;20109;-65
2022/02/17 01:18:44;;;;;;;7.35;1.38;;;;;;;11.13;87.97;98957.94;5089355;28;20048;-65
2022/02/17 01:21:17;;;;;;;17.75;2.08;;;;;;;11.24;87.42;98929.16;5057349;28;20040;-65
2022/02/17 01:23:43;;;;;;;12.73;1.92;;;;;;;11.11;88.13;98936.09;5089050;28;20044;-65
2022/02/17 01:26:13;;;;;;;17.42;2.50;;;;;;;11.09;87.60;98946.06;5089791;28;20048;-65
2022/02/17 01:28:51;;;;;;;10.55;1.67;;;;;;;11.09;88.05;98930.16;5089919;28;20048;-65
2022/02/17 01:31:23;;;;;;;12.55;1.80;;;;;;;11.03;88.36;98924.84;5089843;28;20119;-65
2022/02/17 01:34:01;;;;;;;7.75;1.88;;;;;;;11.02;88.35;98944.41;5083855;28;20037;-65
2022/02/17 01:36:28;;;;;;;13.68;2.08;;;;;;;11.08;88.07;98941.00;5081815;28;20052;-65
2022/02/17 01:38:56;;;;;;;8.40;1.60;;;;;;;11.11;87.45;98921.97;5069183;28;20044;-65
2022/02/17 01:41:24;;;;;;;12.68;2.10;;;;;;;11.04;88.66;98937.91;5069613;28;20049;-65
2022/02/17 01:44:02;;;;;;;13.85;3.65;;;;;;;11.07;88.56;98947.28;5069297;28;20051;-65
2022/02/17 01:46:41;;;;;;;9.70;2.00;;;;;;;11.02;88.31;98976.25;5068048;28;20532;-65
2022/02/17 01:49:10;;;;;;;14.30;2.40;;;;;;;10.89;89.37;98971.72;5051935;28;20058;-65
2022/02/17 01:51:39;;;;;;;13.15;2.00;;;;;;;10.86;89.61;98970.31;5070730;28;20041;-65
2022/02/17 01:54:08;;;;;;;13.05;2.45;;;;;;;10.86;88.37;98996.84;5086055;28;20442;-65
2022/02/17 01:56:38;;;;;;;13.15;2.00;;;;;;;10.82;88.25;98977.00;5088710;28;20068;-65
2022/02/17 01:59:09;;;;;;;13.68;2.15;;;;;;;10.98;85.67;98990.94;5051165;28;20123;-65
2022/02/17 02:01:41;;;;;;;11.05;2.22;;;;;;;10.97;85.09;99003.41;5068951;28;20059;-65
2022/02/17 02:04:11;;;;;;;15.50;2.40;;;;;;;10.98;86.70;99002.38;5068444;28;20048;-65
2022/02/17 02:06:41;;;;;;;13.68;2.78;;;;;;;10.80;86.98;99018.03;5068827;28;20075;-65
2022/02/17 02:09:11;;;;;;;14.77;2.80;;;;;;;10.66;87.32;99023.28;5067998;28;20131;-65
2022/02/17 02:11:58;;;;;;;20.92;3.42;;;;;;;10.60;87.98;99041.78;5063720;28;20047;-66
2022/02/17 02:14:25;;;;;;;17.88;2.95;;;;;;;10.48;88.35;99058.25;5054241;28;20044;-65
2022/02/17 02:16:56;;;;;;;21.13;2.85;;;;;;;10.41;89.23;99072.47;5055479;28;20045;-65
2022/02/17 02:19:23;;;;;;;15.18;2.20;;;;;;;10.30;88.51;99057.91;5054554;28;20064;-65
2022/02/17 02:21:54;;;;;;;20.10;2.90;;;;;;;10.16;88.44;99049.03;5069414;28;20551;-65
2022/02/17 02:24:21;;;;;;;20.55;2.70;;;;;;;10.19;87.35;99046.00;5075645;28;20040;-65
2022/02/17 02:26:49;;;;;;;19.02;2.55;;;;;;;10.22;87.35;99039.47;5072777;28;20052;-65
2022/02/17 02:29:22;;;;;;;13.90;2.50;;;;;;;10.33;83.55;99074.25;5075360;28;20045;-65
2022/02/17 02:31:49;;;;;;;18.55;3.25;;;;;;;10.47;82.24;99066.41;5073971;28;20041;-65
2022/02/17 02:34:15;;;;;;;17.27;3.25;;;;;;;10.64;79.61;99064.25;5075129;28;20496;-65
2022/02/17 02:36:42;;;;;;;20.40;3.25;;;;;;;10.49;82.02;99083.72;5073575;28;20135;-65
2022/02/17 02:39:09;;;;;;;22.80;2.55;;;;;;;10.42;80.61;99063.50;5074074;28;20041;-65
2022/02/17 02:41:46;;;;;;;19.85;3.50;;;;;;;10.19;82.08;99091.03;5043353;28;20044;-65
2022/02/17 02:44:13;;;;;;;20.42;3.22;;;;;;;10.08;79.27;99068.53;5074967;28;20098;-65
2022/02/17 02:46:46;;;;;;;19.15;3.80;;;;;;;10.04;80.71;99091.13;5073587;28;20052;-65
2022/02/17 02:49:15;;;;;;;24.33;3.60;;;;;;;10.07;81.20;99092.56;5073946;28;20045;-65
2022/02/17 02:51:42;;;;;;;21.95;3.55;;;;;;;10.18;79.57;99119.34;5073853;28;20040;-65
2022/02/17 02:54:10;;;;;;;22.50;3.83;;;;;;;10.15;81.80;99143.59;5073275;28;20048;-65
2022/02/17 02:56:39;;;;;;;16.58;3.67;;;;;;;10.14;79.67;99194.94;5068701;28;20114;-65
2022/02/17 02:59:06;;;;;;;17.98;3.80;;;;;;;9.98;82.45;99171.34;5068313;28;20052;-66
2022/02/17 03:01:33;;;;;;;29.25;3.80;;;;;;;9.81;82.53;99168.13;5073066;28;20086;-65
2022/02/17 03:04:00;;;;;;;28.27;4.55;;;;;;;9.83;81.84;99200.53;5074793;28;20120;-63
2022/02/17 03:06:29;;;;;;;22.95;3.58;;;;;;;9.85;81.68;99189.75;5074457;28;20040;-64
2022/02/17 03:08:58;;;;;;;19.70;3.55;;;;;;;9.80;81.64;99198.25;5074938;28;20128;-65
2022/02/17 03:11:28;;;;;;;27.90;4.50;;;;;;;9.82;81.41;99187.47;5074488;28;20098;-64
2022/02/17 03:13:55;;;;;;;24.67;4.88;;;;;;;9.83;80.78;99197.06;5073381;28;20047;-64
2022/02/17 03:16:23;;;;;;;22.70;3.85;;;;;;;9.93;78.55;99213.47;5072982;28;20040;-65
2022/02/17 03:18:54;;;;;;;27.75;4.32;;;;;;;9.90;78.61;99232.41;5074776;28;20064;-65
2022/02/17 03:21:22;;;;;;;26.77;4.75;;;;;;;9.99;77.93;99225.97;5074225;28;20036;-65
2022/02/17 03:23:49;;;;;;;28.25;4.18;;;;;;;9.96;78.57;99221.84;5073319;28;20040;-65
2022/02/17 03:26:19;;;;;;;38.17;3.97;;;;;;;10.02;75.08;99236.19;5057491;28;20067;-64
2022/02/17 03:28:53;;;;;;;25.73;4.15;;;;;;;10.08;75.25;99261.13;5074126;28;20044;-64
2022/02/17 03:31:20;;;;;;;32.63;3.55;;;;;;;10.09;74.30;99226.47;5074022;28;20074;-64
2022/02/17 03:33:53;;;;;;;22.42;3.45;;;;;;;10.14;72.04;99244.47;5073325;28;20048;-65
2022/02/17 03:36:24;;;;;;;24.67;3.58;;;;;;;10.20;72.45;99254.31;5074184;28;20123;-65
2022/02/17 03:38:57;;;;;;;32.75;4.70;;;;;;;10.22;73.20;99257.59;5074218;28;20126;-65
2022/02/17 03:41:36;;;;;;;23.37;4.13;;;;;;;10.20;72.86;99259.63;5073873;28;20396;-65
2022/02/17 03:44:10;;;;;;;25.95;3.45;;;;;;;10.19;70.96;99281.84;5056914;28;20303;-65
2022/02/17 03:46:42;;;;;;;30.88;4.35;;;;;;;10.18;71.32;99286.28;5041713;28;20052;-65
2022/02/17 03:49:09;;;;;;;26.92;4.40;;;;;;;10.26;70.83;99311.03;5052661;28;20032;-64
2022/02/17 03:51:36;;;;;;;32.13;4.70;;;;;;;10.26;71.97;99305.75;5056557;28;20037;-65
2022/02/17 03:54:03;;;;;;;21.55;3.90;;;;;;;10.20;71.22;99312.63;5049740;28;20048;-65
2022/02/17 03:56:32;;;;;;;23.83;3.80;;;;;;;10.16;71.26;99311.34;5052260;28;20469;-66
2022/02/17 03:59:19;;;;;;;26.63;4.10;;;;;;;10.19;68.75;99337.50;5052139;28;20349;-66
2022/02/17 04:01:46;;;;;;;22.40;3.78;;;;;;;10.15;67.48;99299.94;5050888;28;20040;-65
2022/02/17 04:04:17;;;;;;;28.52;3.88;;;;;;;10.14;67.36;99292.97;5056776;28;20079;-65
2022/02/17 04:06:44;;;;;;;25.33;3.70;;;;;;;10.15;65.35;99322.94;5072144;28;20098;-65
2022/02/17 04:09:12;;;;;;;19.17;3.25;;;;;;;10.15;64.19;99307.88;5073465;28;20045;-66
2022/02/17 04:11:40;;;;;;;19.50;2.85;;;;;;;10.17;64.56;99299.75;5072740;28;20446;-65
2022/02/17 04:14:07;;;;;;;20.33;3.63;;;;;;;10.13;65.12;99322.31;5073154;28;20055;-64
2022/02/17 04:16:39;;;;;;;30.33;3.45;;;;;;;10.10;65.41;99299.66;5073258;28;20068;-64
2022/02/17 04:19:13;;;;;;;26.98;3.67;;;;;;;10.06;66.55;99313.47;5056819;28;20083;-64
2022/02/17 04:21:59;;;;;;;21.05;3.67;;;;;;;10.09;66.10;99321.06;5073202;28;20242;-65
2022/02/17 04:24:36;;;;;;;30.42;4.20;;;;;;;10.09;66.63;99329.81;5055750;28;20052;-65
2022/02/17 04:27:04;;;;;;;33.28;4.78;;;;;;;10.06;67.17;99351.41;5072280;28;20044;-65
2022/02/17 04:29:34;;;;;;;30.60;4.15;;;;;;;10.09;67.64;99372.22;5073023;28;20051;-65
2022/02/17 04:32:03;;;;;;;27.85;3.60;;;;;;;10.18;64.77;99365.78;5046096;28;20060;-65
2022/02/17 04:34:29;;;;;;;26.10;4.22;;;;;;;10.15;65.90;99383.91;5054883;28;20045;-65
2022/02/17 04:37:11;;;;;;;16.80;3.28;;;;;;;10.15;65.67;99405.09;5037547;28;20094;-65
2022/02/17 04:39:38;;;;;;;20.60;3.38;;;;;;;10.15;65.21;99386.53;5055941;28;20051;-65
2022/02/17 04:42:22;;;;;;;23.70;3.80;;;;;;;10.06;65.39;99374.41;5051823;28;20045;-64
2022/02/17 04:45:00;;;;;;;29.05;4.60;;;;;;;10.02;65.84;99387.19;5051394;28;20408;-65
2022/02/17 04:47:26;;;;;;;30.63;4.32;;;;;;;10.07;65.64;99389.31;5052964;28;20051;-65
2022/02/17 04:49:54;;;;;;;27.77;4.25;;;;;;;10.09;65.70;99404.00;5055997;28;20135;-67
2022/02/17 04:52:21;;;;;;;40.00;5.13;;;;;;;10.06;66.20;99414.16;5068963;28;20036;-64
2022/02/17 04:54:48;;;;;;;31.65;4.75;;;;;;;9.99;67.36;99420.19;5069838;28;20055;-64
2022/02/17 04:57:15;;;;;;;38.13;4.38;;;;;;;10.01;67.13;99433.25;5061523;28;20041;-64
2022/02/17 04:59:42;;;;;;;35.30;5.18;;;;;;;9.85;67.24;99428.13;5051585;28;20550;-65
2022/02/17 05:02:10;;;;;;;37.15;4.65;;;;;;;9.87;67.22;99421.63;5051924;28;20068;-66
2022/02/17 05:04:52;;;;;;;30.30;4.05;;;;;;;9.88;66.33;99423.28;5051776;28;20057;-65
2022/02/17 05:07:23;;;;;;;43.03;4.68;;;;;;;9.86;66.11;99446.50;5051789;28;20052;-65
2022/02/17 05:09:51;;;;;;;21.13;4.18;;;;;;;9.87;65.70;99442.81;5051779;28;20040;-66
2022/02/17 05:12:26;;;;;;;32.08;5.13;;;;;;;9.88;65.32;99438.38;5036425;28;20069;-65
2022/02/17 05:14:53;;;;;;;31.15;4.47;;;;;;;9.73;66.13;99443.63;5034784;28;20146;-65
2022/02/17 05:17:22;;;;;;;34.65;5.32;;;;;;;9.84;66.19;99448.50;5051262;28;20080;-65
2022/02/17 05:19:49;;;;;;;32.13;4.53;;;;;;;9.74;66.55;99480.53;5052921;28;20120;-65
2022/02/17 05:22:19;;;;;;;28.92;4.63;;;;;;;9.66;67.19;99470.03;5037905;28;20041;-64
2022/02/17 05:25:03;;;;;;;38.60;4.57;;;;;;;9.54;68.03;99464.31;5072581;28;20073;-66
2022/02/17 05:27:47;;;;;;;25.70;4.85;;;;;;;9.56;66.51;99461.50;5057136;28;20079;-65
2022/02/17 05:30:18;;;;;;;28.08;4.72;;;;;;;9.49;67.70;99448.13;5072369;28;20136;-65
2022/02/17 05:33:08;;;;;;;30.90;4.88;;;;;;;9.53;67.04;99469.78;5072368;28;20047;-65
2022/02/17 05:35:55;;;;;;;35.55;4.75;;;;;;;9.53;66.66;99470.63;5071236;28;20099;-65
2022/02/17 05:38:42;;;;;;;29.33;4.40;;;;;;;9.59;65.26;99474.38;5072327;28;20068;-65
2022/02/17 05:41:24;;;;;;;27.33;4.40;;;;;;;9.64;65.08;99481.78;5071142;28;20048;-66
2022/02/17 05:43:51;;;;;;;40.92;6.13;;;;;;;9.65;66.24;99467.53;5063140;28;20049;-65
2022/02/17 05:46:17;;;;;;;31.95;5.38;;;;;;;9.66;64.62;99479.75;5061199;28;20049;-65
2022/02/17 05:48:44;;;;;;;39.85;5.80;;;;;;;9.67;65.08;99489.38;5054898;28;20063;-65
2022/02/17 05:51:11;;;;;;;24.27;4.57;;;;;;;9.68;64.83;99497.13;5057630;28;20033;-67
2022/02/17 05:53:38;;;;;;;41.55;4.88;;;;;;;9.69;64.61;99501.41;5074624;28;20508;-65
2022/02/17 05:56:04;;;;;;;31.00;4.82;;;;;;;9.75;63.85;99532.50;5074386;28;20051;-65
2022/02/17 05:58:31;;;;;;;35.90;5.30;;;;;;;9.68;65.26;99520.13;5075758;28;20090;-65
2022/02/17 06:00:58;;;;;;;36.85;6.20;;;;;;;9.67;65.16;99535.19;5073959;28;20098;-65
2022/02/17 06:03:25;;;;;;;39.80;5.05;;;;;;;9.69;64.08;99537.69;5073915;28;20510;-65
2022/02/17 06:05:51;;;;;;;42.50;5.05;;;;;;;9.67;63.42;99535.19;5064136;28;20099;-65
2022/02/17 06:08:19;;;;;;;33.17;4.40;;;;;;;9.66;63.51;99561.84;5073781;28;20396;-65
2022/02/17 06:10:47;;;;;;;34.80;5.07;;;;;;;9.59;63.63;99551.16;5073688;28;20126;-64
2022/02/17 06:13:14;;;;;;;43.35;4.75;;;;;;;9.59;62.42;99551.97;5057921;28;20528;-65
2022/02/17 06:15:41;;;;;;;34.10;3.97;;;;;;;9.69;61.20;99572.09;5037474;28;20131;-65
2022/02/17 06:18:08;;;;;;;28.05;4.38;;;;;;;9.69;61.12;99582.69;5054615;28;20041;-64
2022/02/17 06:20:35;;;;;;;28.42;4.97;;;;;;;9.67;61.80;99569.63;5055427;28;20041;-64
2022/02/17 06:23:02;;;;;;;26.90;4.30;;;;;;;9.64;60.75;99555.91;5063111;28;20048;-64
2022/02/17 06:25:29;;;;;;;31.63;3.78;;;;;;;9.60;61.07;99563.38;5073245;28;20609;-64
2022/02/17 06:27:58;;;;;;;27.60;4.40;;;;;;;9.53;61.07;99579.16;5075540;28;20045;-64
2022/02/17 06:30:25;;;;;;;33.28;4.35;;;;;;;9.52;61.99;99584.63;5073552;28;20051;-64
2022/02/17 06:32:55;;;;;;;31.17;4.38;;;;;;;9.57;60.90;99612.22;5075188;28;20068;-65
2022/02/17 06:35:29;;;;;;;23.50;3.78;;;;;;;9.47;60.62;99606.31;5058036;28;20147;-64
2022/02/17 06:37:58;;;;;;;29.60;4.03;;;;;;;9.49;61.43;99614.09;5075458;28;20405;-65
2022/02/17 06:40:26;;;;;;;39.70;5.72;;;;;;;9.54;61.09;99609.09;5071221;28;20052;-64
2022/02/17 06:42:53;;;;;;;24.98;4.22;;;;;;;9.56;60.55;99615.06;5077691;28;20039;-64
2022/02/17 06:45:21;;;;;;;28.52;4.70;;;;;;;9.51;61.59;99617.38;5075566;28;20079;-65
2022/02/17 06:47:47;;;;;;;31.40;4.47;;;;;;;9.55;60.46;99632.78;5075189;28;20037;-65
2022/02/17 06:50:16;;;;;;;28.13;4.22;;;;;;;9.54;60.86;99638.22;5057398;28;20102;-64
2022/02/17 06:52:43;;;;;;;24.00;4.50;;;;;;;9.51;60.51;99651.81;5049805;28;20139;-64
2022/02/17 06:55:10;;;;;;;25.55;4.03;;;;;;;9.56;59.04;99662.72;5048768;28;20493;-64
2022/02/17 06:57:37;;;;;;;25.33;4.32;;;;;;;9.59;59.69;99665.84;5059615;28;20056;-63
2022/02/17 07:00:05;;;;;;;25.27;3.72;;;;;;;9.51;60.62;99670.34;5053115;28;20079;-64
2022/02/17 07:02:33;;;;;;;21.08;3.10;;;;;;;9.57;58.42;99686.38;5052168;28;20114;-64
2022/02/17 07:05:01;;;;;;;22.00;3.53;;;;;;;9.60;58.16;99667.50;5053275;28;20178;-64
2022/02/17 07:07:30;;;;;;;29.25;3.80;;;;;;;9.58;58.86;99709.19;5053298;28;20048;-64
2022/02/17 07:09:57;;;;;;;21.40;4.00;;;;;;;9.54;58.79;99699.94;5054750;28;20444;-64
2022/02/17 07:12:26;;;;;;;31.70;4.07;;;;;;;9.47;59.91;99700.81;5036885;28;20359;-65
2022/02/17 07:14:56;;;;;;;26.38;4.00;;;;;;;9.47;59.09;99720.16;5036814;28;20045;-64
2022/02/17 07:17:24;;;;;;;24.30;4.37;;;;;;;9.51;57.46;99715.34;5053295;28;20064;-64
2022/02/17 07:19:51;;;;;;;27.75;3.97;;;;;;;9.52;57.42;99730.25;5045640;28;20322;-64
2022/02/17 07:22:18;;;;;;;23.08;3.53;;;;;;;9.53;57.41;99753.06;5072945;28;20043;-64
2022/02/17 07:24:45;;;;;;;23.85;3.35;;;;;;;9.47;56.58;99783.69;5056616;28;20439;-64
2022/02/17 07:27:12;;;;;;;25.80;3.38;;;;;;;9.48;58.22;99769.47;5074394;28;20389;-64
2022/02/17 07:29:39;;;;;;;31.35;4.25;;;;;;;9.46;58.52;99747.66;5072908;28;20037;-64
2022/02/17 07:32:07;;;;;;;26.08;4.00;;;;;;;9.49;57.01;99744.63;5072608;28;20119;-64
2022/02/17 07:34:34;;;;;;;31.25;3.95;;;;;;;9.48;58.34;99747.44;5074248;28;20097;-65
2022/02/17 07:37:00;;;;;;;27.50;4.47;;;;;;;9.43;58.06;99768.34;5073063;28;20492;-64
2022/02/17 07:39:27;;;;;;;28.98;4.13;;;;;;;9.41;59.35;99781.75;5073997;28;20550;-64
2022/02/17 07:41:55;;;;;;;27.42;3.83;;;;;;;9.47;58.56;99782.88;5053439;28;20037;-64
2022/02/17 07:44:25;;;;;;;21.52;3.08;;;;;;;9.47;58.74;99810.16;5059677;28;20049;-64
2022/02/17 07:46:53;;;;;;;33.17;4.35;;;;;;;9.39;59.80;99805.72;5052819;28;20064;-65
2022/02/17 07:49:20;;;;;;;26.52;3.72;;;;;;;9.37;59.35;99813.00;5041901;28;20041;-64
2022/02/17 07:51:47;;;;;;;38.00;4.55;;;;;;;9.37;60.58;99797.13;5055663;28;20132;-65
2022/02/17 07:54:14;;;;;;;29.27;3.83;;;;;;;9.29;59.19;99794.50;5063806;28;20132;-65
2022/02/17 07:56:41;;;;;;;32.25;4.80;;;;;;;9.40;58.63;99807.38;5052556;28;20041;-65
2022/02/17 07:59:08;;;;;;;23.85;3.63;;;;;;;9.45;58.75;99819.28;5059525;28;20041;-65
2022/02/17 08:01:35;;;;;;;28.02;4.88;;;;;;;9.37;59.03;99820.94;5043409;28;20064;-64
2022/02/17 08:04:02;;;;;;;31.90;3.67;;;;;;;9.41;58.40;99848.72;5077488;28;20055;-65
2022/02/17 08:06:29;;;;;;;33.17;5.13;;;;;;;9.45;59.47;99828.03;5075300;28;20510;-64
2022/02/17 08:08:56;;;;;;;29.42;4.30;;;;;;;9.54;58.82;99829.69;5085374;28;20041;-64
2022/02/17 08:11:23;;;;;;;31.80;3.95;;;;;;;9.55;57.19;99846.38;5055569;28;20051;-64
2022/02/17 08:13:50;;;;;;;28.85;4.00;;;;;;;9.59;58.20;99840.59;5066902;28;20045;-64
2022/02/17 08:16:19;;;;;;;33.85;3.90;;;;;;;9.55;58.08;99831.34;5051935;28;20048;-64
2022/02/17 08:18:46;;;;;;;17.60;3.38;;;;;;;9.48;57.99;99840.94;5026324;28;20108;-64
2022/02/17 08:21:24;;;;;;;28.55;3.83;;;;;;;9.46;58.18;99850.03;5054236;28;20055;-65
2022/02/17 08:23:51;;;;;;;33.10;5.20;;;;;;;9.48;58.52;99854.19;5064664;28;20064;-65
2022/02/17 08:26:18;;;;;;;19.20;2.80;;;;;;;9.48;58.45;99870.06;5068922;28;20114;-64
2022/02/17 08:28:44;;;;;;;24.52;3.95;;;;;;;9.45;58.49;99881.00;5062048;28;20094;-65
2022/02/17 08:31:13;;;;;;;34.92;4.47;;;;;;;9.47;59.19;99872.88;5069732;28;20040;-65
2022/02/17 08:33:41;;;;;;;24.10;4.03;;;;;;;9.47;58.33;99865.75;5029615;28;20057;-65
2022/02/17 08:36:09;;;;;;;22.38;4.78;;;;;;;9.54;58.02;99885.28;5032484;28;20143;-65
2022/02/17 08:38:37;;;;;;;34.50;4.05;;;;;;;9.64;57.63;99871.03;5063416;28;20041;-65
2022/02/17 08:41:04;;;;;;;33.45;4.97;;;;;;;9.74;57.54;99884.91;5064366;28;20036;-65
2022/02/17 08:43:30;;;;;;;30.77;5.00;;;;;;;10.14;56.67;99891.06;5057269;28;22170;-65
2022/02/17 08:45:59;;;;;;;29.45;4.25;;;;;;;10.49;56.09;99907.50;5061721;28;20072;-65
2022/02/17 08:48:26;;;;;;;22.30;3.92;;;;;;;10.42;55.41;99898.59;5055286;28;20500;-65
2022/02/17 08:50:53;;;;;;;22.30;3.60;;;;;;;10.10;54.36;99903.84;5084680;28;20033;-65
2022/02/17 08:53:22;;;;;;;22.92;3.10;;;;;;;10.11;54.75;99913.44;5063895;28;20040;-65
2022/02/17 08:55:51;;;;;;;21.75;3.38;;;;;;;9.77;54.60;99914.53;5060923;28;20502;-65
2022/02/17 08:58:18;;;;;;;17.75;3.45;;;;;;;9.92;53.26;99927.91;5070243;28;20109;-65
2022/02/17 09:00:45;;;;;;;26.20;3.42;;;;;;;9.90;52.91;99927.25;5077781;28;20442;-65
2022/02/17 09:03:12;;;;;;;29.92;3.67;;;;;;;9.95;54.18;99940.81;5082934;28;20036;-65
2022/02/17 09:05:40;;;;;;;21.92;3.42;;;;;;;9.71;52.08;99931.09;5066089;28;20041;-65
2022/02/17 09:08:13;;;;;;;21.95;3.67;;;;;;;9.85;53.54;99944.66;5064983;28;20036;-65
2022/02/17 09:10:40;;;;;;;31.05;3.70;;;;;;;9.84;54.65;99938.53;5051442;28;20045;-65
2022/02/17 09:13:07;;;;;;;30.15;3.55;;;;;;;9.75;55.34;99993.34;5061649;28;20037;-65
2022/02/17 09:15:35;;;;;;;28.85;3.75;;;;;;;9.64;54.67;99972.50;5068686;28;20443;-65
2022/02/17 09:18:02;;;;;;;27.02;3.80;;;;;;;9.60;53.07;99972.00;5060734;28;20446;-65
2022/02/17 09:20:35;;;;;;;25.58;3.42;;;;;;;9.59;52.83;99973.00;5070548;28;20119;-65
2022/02/17 09:23:03;;;;;;;25.77;3.07;;;;;;;9.59;52.43;99964.22;5059409;28;20087;-65
2022/02/17 09:25:34;;;;;;;27.65;3.75;;;;;;;9.66;53.29;99982.91;5057944;28;20128;-65
2022/02/17 09:28:03;;;;;;;24.40;3.47;;;;;;;9.68;54.40;99987.06;5068330;28;20176;-65
2022/02/17 09:30:30;;;;;;;20.33;3.65;;;;;;;9.69;52.80;99979.94;5083987;28;20044;-65
2022/02/17 09:32:57;;;;;;;20.83;3.78;;;;;;;9.83;52.39;99995.16;5074338;28;20048;-65
2022/02/17 09:35:26;;;;;;;23.83;4.10;;;;;;;9.94;52.74;100008.03;5077358;28;20469;-65
2022/02/17 09:37:52;;;;;;;18.00;2.72;;;;;;;9.86;52.80;100007.22;5072795;28;20047;-65
2022/02/17 09:40:20;;;;;;;23.95;2.88;;;;;;;9.71;52.69;100007.06;5070955;28;20045;-65
2022/02/17 09:42:47;;;;;;;22.73;3.78;;;;;;;9.67;52.81;100013.69;5065411;28;20059;-65
2022/02/17 09:45:15;;;;;;;21.48;2.92;;;;;;;9.76;53.61;100016.16;5062772;28;20083;-65
2022/02/17 09:47:44;;;;;;;21.63;3.40;;;;;;;9.86;52.26;100028.41;5069929;28;20140;-65
2022/02/17 09:50:13;;;;;;;24.60;3.42;;;;;;;9.72;52.44;100033.41;5066709;28;20040;-65
2022/02/17 09:52:42;;;;;;;19.38;3.88;;;;;;;9.89;53.29;100043.97;5078162;28;20032;-65
2022/02/17 09:55:12;;;;;;;14.75;2.95;;;;;;;9.83;50.01;100063.22;5072290;28;20089;-65
2022/02/17 09:57:40;;;;;;;26.42;3.35;;;;;;;9.90;51.61;100053.59;5070380;28;20067;-65
2022/02/17 10:00:10;;;;;;;24.60;3.83;;;;;;;9.92;50.04;100049.78;5090092;28;20051;-65
2022/02/17 10:02:41;;;;;;;29.30;4.28;;;;;;;9.90;50.58;100070.31;5065685;28;20040;-65
2022/02/17 10:05:11;;;;;;;25.13;4.10;;;;;;;9.74;49.73;100051.78;5066448;28;20036;-65
2022/02/17 10:07:42;;;;;;;16.75;2.95;;;;;;;9.77;48.14;100073.47;5062860;28;20416;-65
2022/02/17 10:10:13;;;;;;;22.30;3.45;;;;;;;9.97;49.47;100073.13;5062323;28;20036;-65
2022/02/17 10:13:01;;;;;;;27.92;3.33;;;;;;;10.03;49.52;100074.28;5068662;28;20166;-65
2022/02/17 10:15:37;;;;;;;25.60;3.90;;;;;;;9.96;49.67;100064.34;5083174;28;20059;-65
2022/02/17 10:21:07;;;;;;;21.77;3.17;;;;;;;10.20;49.95;100099.78;5099324;27;20121;-65
2022/02/17 10:23:40;;;;;;;23.87;3.50;;;;;;;10.17;50.25;100105.44;5063884;28;20411;-65
2022/02/17 10:26:14;;;;;;;21.35;3.20;;;;;;;9.98;50.31;100099.44;5067146;28;20302;-64
2022/02/17 10:28:50;;;;;;;20.10;2.88;;;;;;;9.77;48.81;100099.13;5050168;28;20044;-65
2022/02/17 10:31:28;;;;;;;22.80;3.08;;;;;;;9.65;50.32;100117.16;5065521;28;20040;-65
2022/02/17 10:33:57;;;;;;;16.77;2.95;;;;;;;9.50;49.20;100143.44;5080681;28;20052;-70
2022/02/17 10:36:40;;;;;;;20.60;3.53;;;;;;;9.64;49.86;100122.59;5031222;28;20051;-65
2022/02/17 10:39:14;;;;;;;15.32;2.20;;;;;;;9.88;49.61;100127.94;5082759;28;20064;-66
2022/02/17 10:41:47;;;;;;;12.70;2.55;;;;;;;9.97;48.98;100132.25;5077117;28;20537;-69
2022/02/17 10:44:15;;;;;;;17.23;3.10;;;;;;;9.84;48.72;100146.97;5063516;28;20493;-66
2022/02/17 10:46:42;;;;;;;33.03;3.10;;;;;;;9.97;48.79;100134.09;5060492;28;20131;-64
2022/02/17 10:49:14;;;;;;;27.58;3.10;;;;;;;10.05;48.19;100149.97;5066724;28;20037;-65
2022/02/17 10:51:42;;;;;;;21.67;3.63;;;;;;;9.90;47.47;100160.41;5078302;28;20041;-64
2022/02/17 10:54:10;;;;;;;15.52;2.47;;;;;;;9.71;46.81;100137.66;5085888;28;20032;-64
2022/02/17 10:56:38;;;;;;;18.48;3.33;;;;;;;9.88;47.33;100151.78;5056335;28;20048;-64
2022/02/17 11:01:58;;;;;;;17.00;3.00;;;;;;;10.10;46.76;100157.44;5055760;28;20082;-64
2022/02/17 11:04:26;;;;;;;24.23;3.38;;;;;;;10.14;45.41;100161.41;5068862;28;20067;-64
2022/02/17 11:06:53;;;;;;;18.90;3.47;;;;;;;10.32;45.85;100154.13;5084603;28;20049;-65
2022/02/17 11:09:20;;;;;;;15.13;2.42;;;;;;;10.32;43.99;100175.34;5009648;28;20488;-65
2022/02/17 11:11:51;;;;;;;10.07;2.10;;;;;;;10.24;44.91;100162.09;5093570;28;20052;-66
2022/02/17 11:14:39;;;;;;;15.45;2.42;;;;;;;10.37;44.97;100172.22;5068842;28;20078;-65
2022/02/17 11:17:08;;;;;;;10.68;2.20;;;;;;;10.89;43.19;100169.13;5079565;28;20106;-65
2022/02/17 11:19:50;;;;;;;11.88;1.88;;;;;;;10.93;43.42;100177.56;5071410;28;20047;-65
2022/02/17 11:22:20;;;;;;;9.43;1.75;;;;;;;11.69;41.44;100218.59;5059422;28;20052;-67
2022/02/17 11:24:51;;;;;;;11.25;2.40;;;;;;;12.38;41.86;100172.63;5081559;28;20047;-66
2022/02/17 11:27:20;;;;;;;12.55;2.30;;;;;;;13.16;38.29;100191.00;5077803;28;20051;-65
2022/02/17 11:29:48;;;;;;;10.82;2.33;;;;;;;14.22;35.65;100234.09;5077786;28;20041;-67
2022/02/17 11:32:19;;;;;;;13.20;2.40;;;;;;;14.45;37.67;100185.88;5054879;28;20098;-66
2022/02/17 11:40:15;;;;;;;16.50;2.72;;;;;;;16.52;33.52;100208.16;5107055;27;20124;-64
2022/02/17 11:42:48;;;;;;;17.98;2.63;;;;;;;16.50;34.34;100203.00;5024310;28;20071;-65
2022/02/17 11:45:25;;;;;;;18.75;2.97;;;;;;;17.11;32.83;100211.81;5024969;28;20036;-65
2022/02/17 11:48:06;;;;;;;18.85;2.85;;;;;;;17.44;32.39;100218.94;5025460;28;20376;-65
2022/02/17 11:50:50;;;;;;;15.05;2.50;;;;;;;15.41;34.36;100225.34;5041121;28;20052;-64
2022/02/17 12:06:44;;;;;;;12.38;2.53;;;;;;;16.78;34.75;100227.91;6087239;22;4702448;-64
2022/02/17 12:09:39;;;;;;;14.93;2.58;;;;;;;17.95;33.77;100231.50;6201558;22;20054;-65